sensor_id;sensor_type;location;lat;lon;timestamp;temperature;humidity
2100;DHT22;1055;48.854;9.302;2024-03-02T00:01:10;6.80;99.90
2100;DHT22;1055;48.854;9.302;2024-03-02T00:03:37;6.90;99.90
2100;DHT22;1055;48.854;9.302;2024-03-02T00:06:03;6.80;99.90
2100;DHT22;1055;48.854;9.302;2024-03-02T00:08:29;6.90;99.90
2100;DHT22;1055;48.854;9.302;2024-03-02T00:11:00;6.80;99.90
2100;DHT22;1055;48.854;9.302;2024-03-02T00:13:26;6.80;99.90
2100;DHT22;1055;48.854;9.302;2024-03-02T00:15:52;7.10;99.90
2100;DHT22;1055;48.854;9.302;2024-03-02T00:18:20;7.20;99.90
2100;DHT22;1055;48.854;9.302;2024-03-02T00:20:46;7.40;99.90
2100;DHT22;1055;48.854;9.302;2024-03-02T00:23:15;7.30;99.90
2100;DHT22;1055;48.854;9.302;2024-03-02T00:25:52;7.50;99.90
2100;DHT22;1055;48.854;9.302;2024-03-02T00:28:34;7.70;99.90
2100;DHT22;1055;48.854;9.302;2024-03-02T00:31:10;7.70;99.90
2100;DHT22;1055;48.854;9.302;2024-03-02T00:33:43;7.40;99.90
2100;DHT22;1055;48.854;9.302;2024-03-02T00:36:09;7.60;99.90
2100;DHT22;1055;48.854;9.302;2024-03-02T00:41:09;7.70;99.90
2100;DHT22;1055;48.854;9.302;2024-03-02T00:44:06;7.70;99.90
2100;DHT22;1055;48.854;9.302;2024-03-02T00:46:42;7.80;99.90
2100;DHT22;1055;48.854;9.302;2024-03-02T00:49:22;8.00;99.90
2100;DHT22;1055;48.854;9.302;2024-03-02T00:51:50;8.00;99.90
2100;DHT22;1055;48.854;9.302;2024-03-02T00:54:19;7.90;99.90
2100;DHT22;1055;48.854;9.302;2024-03-02T00:56:47;7.40;99.90
2100;DHT22;1055;48.854;9.302;2024-03-02T00:59:13;7.60;99.90
2100;DHT22;1055;48.854;9.302;2024-03-02T01:01:38;7.50;99.90
2100;DHT22;1055;48.854;9.302;2024-03-02T01:04:04;7.80;99.90
2100;DHT22;1055;48.854;9.302;2024-03-02T01:06:30;7.90;99.90
2100;DHT22;1055;48.854;9.302;2024-03-02T01:08:56;8.00;99.90
2100;DHT22;1055;48.854;9.302;2024-03-02T01:11:22;7.80;99.90
2100;DHT22;1055;48.854;9.302;2024-03-02T01:13:47;8.00;99.90
2100;DHT22;1055;48.854;9.302;2024-03-02T01:16:14;7.80;99.90
2100;DHT22;1055;48.854;9.302;2024-03-02T01:18:41;7.50;99.90
2100;DHT22;1055;48.854;9.302;2024-03-02T01:21:06;7.60;99.90
2100;DHT22;1055;48.854;9.302;2024-03-02T01:23:32;7.40;99.90
2100;DHT22;1055;48.854;9.302;2024-03-02T01:25:58;7.40;99.90
2100;DHT22;1055;48.854;9.302;2024-03-02T01:28:23;7.50;99.90
2100;DHT22;1055;48.854;9.302;2024-03-02T01:30:49;7.50;99.90
2100;DHT22;1055;48.854;9.302;2024-03-02T01:33:16;7.60;99.90
2100;DHT22;1055;48.854;9.302;2024-03-02T01:35:42;7.40;99.90
2100;DHT22;1055;48.854;9.302;2024-03-02T01:38:07;7.40;99.90
2100;DHT22;1055;48.854;9.302;2024-03-02T01:40:34;7.40;99.90
2100;DHT22;1055;48.854;9.302;2024-03-02T01:43:00;7.50;99.90
2100;DHT22;1055;48.854;9.302;2024-03-02T01:45:26;7.70;99.90
2100;DHT22;1055;48.854;9.302;2024-03-02T01:47:52;7.80;99.90
2100;DHT22;1055;48.854;9.302;2024-03-02T01:50:32;7.60;99.90
2100;DHT22;1055;48.854;9.302;2024-03-02T01:52:58;7.50;99.90
2100;DHT22;1055;48.854;9.302;2024-03-02T01:55:24;7.60;99.90
2100;DHT22;1055;48.854;9.302;2024-03-02T01:57:51;7.70;99.90
2100;DHT22;1055;48.854;9.302;2024-03-02T02:00:21;7.60;99.90
2100;DHT22;1055;48.854;9.302;2024-03-02T02:02:47;7.50;99.90
2100;DHT22;1055;48.854;9.302;2024-03-02T02:05:14;7.40;99.90
2100;DHT22;1055;48.854;9.302;2024-03-02T02:07:41;7.40;99.90
2100;DHT22;1055;48.854;9.302;2024-03-02T02:10:07;7.50;99.90
2100;DHT22;1055;48.854;9.302;2024-03-02T02:12:33;7.60;99.90
2100;DHT22;1055;48.854;9.302;2024-03-02T02:14:58;7.50;99.90
2100;DHT22;1055;48.854;9.302;2024-03-02T02:17:24;7.30;99.90
2100;DHT22;1055;48.854;9.302;2024-03-02T02:19:49;7.40;99.90
2100;DHT22;1055;48.854;9.302;2024-03-02T02:22:15;7.50;99.90
2100;DHT22;1055;48.854;9.302;2024-03-02T02:24:41;7.00;99.90
2100;DHT22;1055;48.854;9.302;2024-03-02T02:27:07;7.00;99.90
2100;DHT22;1055;48.854;9.302;2024-03-02T02:29:33;7.00;99.90
2100;DHT22;1055;48.854;9.302;2024-03-02T02:31:59;7.20;99.90
2100;DHT22;1055;48.854;9.302;2024-03-02T02:34:24;6.60;99.90
2100;DHT22;1055;48.854;9.302;2024-03-02T02:36:50;6.20;99.90
2100;DHT22;1055;48.854;9.302;2024-03-02T02:39:17;5.60;99.90
2100;DHT22;1055;48.854;9.302;2024-03-02T02:41:44;5.70;99.90
2100;DHT22;1055;48.854;9.302;2024-03-02T02:44:09;5.50;99.90
2100;DHT22;1055;48.854;9.302;2024-03-02T02:46:40;5.80;99.90
2100;DHT22;1055;48.854;9.302;2024-03-02T02:49:06;5.50;99.90
2100;DHT22;1055;48.854;9.302;2024-03-02T02:51:32;5.40;99.90
2100;DHT22;1055;48.854;9.302;2024-03-02T02:53:57;5.20;99.90
2100;DHT22;1055;48.854;9.302;2024-03-02T02:56:23;5.40;99.90
2100;DHT22;1055;48.854;9.302;2024-03-02T02:58:49;5.40;99.90
2100;DHT22;1055;48.854;9.302;2024-03-02T03:01:17;5.20;99.90
2100;DHT22;1055;48.854;9.302;2024-03-02T03:03:44;4.90;99.90
2100;DHT22;1055;48.854;9.302;2024-03-02T03:06:10;5.20;99.90
2100;DHT22;1055;48.854;9.302;2024-03-02T03:08:36;5.00;99.90
2100;DHT22;1055;48.854;9.302;2024-03-02T03:11:01;4.90;99.90
2100;DHT22;1055;48.854;9.302;2024-03-02T03:13:27;5.10;99.90
2100;DHT22;1055;48.854;9.302;2024-03-02T03:15:52;5.30;99.90
2100;DHT22;1055;48.854;9.302;2024-03-02T03:18:18;5.50;99.90
2100;DHT22;1055;48.854;9.302;2024-03-02T03:20:44;5.80;99.90
2100;DHT22;1055;48.854;9.302;2024-03-02T03:23:09;6.00;99.90
2100;DHT22;1055;48.854;9.302;2024-03-02T03:25:40;6.10;99.90
2100;DHT22;1055;48.854;9.302;2024-03-02T03:28:05;6.20;99.90
2100;DHT22;1055;48.854;9.302;2024-03-02T03:30:31;6.30;99.90
2100;DHT22;1055;48.854;9.302;2024-03-02T03:32:57;6.20;99.90
2100;DHT22;1055;48.854;9.302;2024-03-02T03:35:22;5.90;99.90
2100;DHT22;1055;48.854;9.302;2024-03-02T03:37:48;5.80;99.90
2100;DHT22;1055;48.854;9.302;2024-03-02T03:40:13;5.80;99.90
2100;DHT22;1055;48.854;9.302;2024-03-02T03:42:39;6.00;99.90
2100;DHT22;1055;48.854;9.302;2024-03-02T03:45:06;6.00;99.90
2100;DHT22;1055;48.854;9.302;2024-03-02T03:47:32;5.80;99.90
2100;DHT22;1055;48.854;9.302;2024-03-02T03:49:58;5.80;99.90
2100;DHT22;1055;48.854;9.302;2024-03-02T03:52:24;6.00;99.90
2100;DHT22;1055;48.854;9.302;2024-03-02T03:54:49;5.60;99.90
2100;DHT22;1055;48.854;9.302;2024-03-02T03:57:15;5.10;99.90
2100;DHT22;1055;48.854;9.302;2024-03-02T03:59:41;5.00;99.90
2100;DHT22;1055;48.854;9.302;2024-03-02T04:02:07;5.00;99.90
2100;DHT22;1055;48.854;9.302;2024-03-02T04:04:33;5.10;99.90
2100;DHT22;1055;48.854;9.302;2024-03-02T04:06:59;5.10;99.90
2100;DHT22;1055;48.854;9.302;2024-03-02T04:09:24;5.30;99.90
2100;DHT22;1055;48.854;9.302;2024-03-02T04:11:51;5.00;99.90
2100;DHT22;1055;48.854;9.302;2024-03-02T04:14:16;5.20;99.90
2100;DHT22;1055;48.854;9.302;2024-03-02T04:16:42;5.20;99.90
2100;DHT22;1055;48.854;9.302;2024-03-02T04:19:07;5.20;99.90
2100;DHT22;1055;48.854;9.302;2024-03-02T04:21:33;5.30;99.90
2100;DHT22;1055;48.854;9.302;2024-03-02T04:23:59;5.10;99.90
2100;DHT22;1055;48.854;9.302;2024-03-02T04:26:27;5.30;99.90
2100;DHT22;1055;48.854;9.302;2024-03-02T04:28:53;5.60;99.90
2100;DHT22;1055;48.854;9.302;2024-03-02T04:31:19;5.50;99.90
2100;DHT22;1055;48.854;9.302;2024-03-02T04:33:45;5.40;99.90
2100;DHT22;1055;48.854;9.302;2024-03-02T04:36:11;5.40;99.90
2100;DHT22;1055;48.854;9.302;2024-03-02T04:38:37;5.40;99.90
2100;DHT22;1055;48.854;9.302;2024-03-02T04:41:04;5.20;99.90
2100;DHT22;1055;48.854;9.302;2024-03-02T04:43:30;5.10;99.90
2100;DHT22;1055;48.854;9.302;2024-03-02T04:45:57;4.90;99.90
2100;DHT22;1055;48.854;9.302;2024-03-02T04:48:23;4.50;99.90
2100;DHT22;1055;48.854;9.302;2024-03-02T04:50:49;4.30;99.90
2100;DHT22;1055;48.854;9.302;2024-03-02T04:53:14;4.50;99.90
2100;DHT22;1055;48.854;9.302;2024-03-02T04:55:40;4.70;99.90
2100;DHT22;1055;48.854;9.302;2024-03-02T04:58:06;5.10;99.90
2100;DHT22;1055;48.854;9.302;2024-03-02T05:00:32;4.80;99.90
2100;DHT22;1055;48.854;9.302;2024-03-02T05:02:58;5.10;99.90
2100;DHT22;1055;48.854;9.302;2024-03-02T05:05:23;5.30;99.90
2100;DHT22;1055;48.854;9.302;2024-03-02T05:07:49;5.40;99.90
2100;DHT22;1055;48.854;9.302;2024-03-02T05:10:14;5.30;99.90
2100;DHT22;1055;48.854;9.302;2024-03-02T05:12:41;5.40;99.90
2100;DHT22;1055;48.854;9.302;2024-03-02T05:15:07;5.40;99.90
2100;DHT22;1055;48.854;9.302;2024-03-02T05:17:33;5.20;99.90
2100;DHT22;1055;48.854;9.302;2024-03-02T05:19:58;5.50;99.90
2100;DHT22;1055;48.854;9.302;2024-03-02T05:22:24;5.00;99.90
2100;DHT22;1055;48.854;9.302;2024-03-02T05:24:50;5.10;99.90
2100;DHT22;1055;48.854;9.302;2024-03-02T05:27:15;4.70;99.90
2100;DHT22;1055;48.854;9.302;2024-03-02T05:29:41;4.60;99.90
2100;DHT22;1055;48.854;9.302;2024-03-02T05:32:07;4.60;99.90
2100;DHT22;1055;48.854;9.302;2024-03-02T05:34:32;4.50;99.90
2100;DHT22;1055;48.854;9.302;2024-03-02T05:37:00;4.40;99.90
2100;DHT22;1055;48.854;9.302;2024-03-02T05:39:26;4.80;99.90
2100;DHT22;1055;48.854;9.302;2024-03-02T05:41:51;5.00;99.90
2100;DHT22;1055;48.854;9.302;2024-03-02T05:44:17;4.90;99.90
2100;DHT22;1055;48.854;9.302;2024-03-02T05:46:43;5.00;99.90
2100;DHT22;1055;48.854;9.302;2024-03-02T05:49:09;5.10;99.90
2100;DHT22;1055;48.854;9.302;2024-03-02T05:51:35;5.30;99.90
2100;DHT22;1055;48.854;9.302;2024-03-02T05:54:01;5.50;99.90
2100;DHT22;1055;48.854;9.302;2024-03-02T05:56:26;5.50;99.90
2100;DHT22;1055;48.854;9.302;2024-03-02T05:58:52;5.20;99.90
2100;DHT22;1055;48.854;9.302;2024-03-02T06:01:33;5.40;99.90
2100;DHT22;1055;48.854;9.302;2024-03-02T06:03:59;5.40;99.90
2100;DHT22;1055;48.854;9.302;2024-03-02T06:06:25;5.20;99.90
2100;DHT22;1055;48.854;9.302;2024-03-02T06:08:51;5.30;99.90
2100;DHT22;1055;48.854;9.302;2024-03-02T06:11:17;5.40;99.90
2100;DHT22;1055;48.854;9.302;2024-03-02T06:13:44;5.50;99.90
2100;DHT22;1055;48.854;9.302;2024-03-02T06:16:09;5.00;99.90
2100;DHT22;1055;48.854;9.302;2024-03-02T06:18:35;4.90;99.90
2100;DHT22;1055;48.854;9.302;2024-03-02T06:21:00;5.00;99.90
2100;DHT22;1055;48.854;9.302;2024-03-02T06:23:26;5.00;99.90
2100;DHT22;1055;48.854;9.302;2024-03-02T06:25:52;4.80;99.90
2100;DHT22;1055;48.854;9.302;2024-03-02T06:28:18;4.60;99.90
2100;DHT22;1055;48.854;9.302;2024-03-02T06:30:44;4.60;99.90
2100;DHT22;1055;48.854;9.302;2024-03-02T06:33:10;4.40;99.90
2100;DHT22;1055;48.854;9.302;2024-03-02T06:35:36;4.10;99.90
2100;DHT22;1055;48.854;9.302;2024-03-02T06:38:01;4.20;99.90
2100;DHT22;1055;48.854;9.302;2024-03-02T06:40:27;4.20;99.90
2100;DHT22;1055;48.854;9.302;2024-03-02T06:42:52;4.10;99.90
2100;DHT22;1055;48.854;9.302;2024-03-02T06:45:18;4.10;99.90
2100;DHT22;1055;48.854;9.302;2024-03-02T06:47:44;4.30;99.90
2100;DHT22;1055;48.854;9.302;2024-03-02T06:50:09;4.50;99.90
2100;DHT22;1055;48.854;9.302;2024-03-02T06:52:35;4.40;99.90
2100;DHT22;1055;48.854;9.302;2024-03-02T06:55:01;4.60;99.90
2100;DHT22;1055;48.854;9.302;2024-03-02T06:57:27;5.00;99.90
2100;DHT22;1055;48.854;9.302;2024-03-02T06:59:52;5.10;99.90
2100;DHT22;1055;48.854;9.302;2024-03-02T07:02:20;5.40;99.90
2100;DHT22;1055;48.854;9.302;2024-03-02T07:04:46;4.90;99.90
2100;DHT22;1055;48.854;9.302;2024-03-02T07:07:12;4.70;99.90
2100;DHT22;1055;48.854;9.302;2024-03-02T07:09:38;4.70;99.90
2100;DHT22;1055;48.854;9.302;2024-03-02T07:12:03;5.10;99.90
2100;DHT22;1055;48.854;9.302;2024-03-02T07:14:29;5.30;99.90
2100;DHT22;1055;48.854;9.302;2024-03-02T07:17:14;4.90;99.90
2100;DHT22;1055;48.854;9.302;2024-03-02T07:19:39;5.10;99.90
2100;DHT22;1055;48.854;9.302;2024-03-02T07:22:08;5.10;99.90
2100;DHT22;1055;48.854;9.302;2024-03-02T07:24:42;5.40;99.90
2100;DHT22;1055;48.854;9.302;2024-03-02T07:27:09;5.60;99.90
2100;DHT22;1055;48.854;9.302;2024-03-02T07:29:34;5.50;99.90
2100;DHT22;1055;48.854;9.302;2024-03-02T07:32:00;5.00;99.90
2100;DHT22;1055;48.854;9.302;2024-03-02T07:34:25;4.60;99.90
2100;DHT22;1055;48.854;9.302;2024-03-02T07:36:51;4.80;99.90
2100;DHT22;1055;48.854;9.302;2024-03-02T07:39:17;4.90;99.90
2100;DHT22;1055;48.854;9.302;2024-03-02T07:41:42;5.10;99.90
2100;DHT22;1055;48.854;9.302;2024-03-02T07:46:38;5.30;99.90
2100;DHT22;1055;48.854;9.302;2024-03-02T07:49:04;5.50;99.90
2100;DHT22;1055;48.854;9.302;2024-03-02T07:51:29;5.70;99.90
2100;DHT22;1055;48.854;9.302;2024-03-02T07:53:55;5.80;99.90
2100;DHT22;1055;48.854;9.302;2024-03-02T07:56:20;6.10;99.90
2100;DHT22;1055;48.854;9.302;2024-03-02T07:58:48;6.10;99.90
2100;DHT22;1055;48.854;9.302;2024-03-02T08:01:14;6.30;99.90
2100;DHT22;1055;48.854;9.302;2024-03-02T08:03:40;6.30;99.90
2100;DHT22;1055;48.854;9.302;2024-03-02T08:06:06;6.30;99.90
2100;DHT22;1055;48.854;9.302;2024-03-02T08:08:32;6.40;99.90
2100;DHT22;1055;48.854;9.302;2024-03-02T08:10:58;6.60;99.90
2100;DHT22;1055;48.854;9.302;2024-03-02T08:13:23;6.40;99.90
2100;DHT22;1055;48.854;9.302;2024-03-02T08:15:49;6.30;99.90
2100;DHT22;1055;48.854;9.302;2024-03-02T08:18:15;6.40;99.90
2100;DHT22;1055;48.854;9.302;2024-03-02T08:20:41;6.60;99.90
2100;DHT22;1055;48.854;9.302;2024-03-02T08:23:06;6.80;99.90
2100;DHT22;1055;48.854;9.302;2024-03-02T08:25:33;6.70;99.90
2100;DHT22;1055;48.854;9.302;2024-03-02T08:27:59;6.80;99.90
2100;DHT22;1055;48.854;9.302;2024-03-02T08:30:24;7.10;99.90
2100;DHT22;1055;48.854;9.302;2024-03-02T08:32:50;7.40;99.90
2100;DHT22;1055;48.854;9.302;2024-03-02T08:35:15;7.60;99.90
2100;DHT22;1055;48.854;9.302;2024-03-02T08:37:42;7.60;99.90
2100;DHT22;1055;48.854;9.302;2024-03-02T08:40:09;7.40;99.90
2100;DHT22;1055;48.854;9.302;2024-03-02T08:42:35;7.70;99.90
2100;DHT22;1055;48.854;9.302;2024-03-02T08:45:01;7.80;99.90
2100;DHT22;1055;48.854;9.302;2024-03-02T08:47:27;8.00;99.90
2100;DHT22;1055;48.854;9.302;2024-03-02T08:49:53;8.20;99.90
2100;DHT22;1055;48.854;9.302;2024-03-02T08:52:18;8.30;99.90
2100;DHT22;1055;48.854;9.302;2024-03-02T08:54:44;7.90;99.90
2100;DHT22;1055;48.854;9.302;2024-03-02T08:57:10;7.90;99.90
2100;DHT22;1055;48.854;9.302;2024-03-02T08:59:35;7.70;99.90
2100;DHT22;1055;48.854;9.302;2024-03-02T09:02:01;7.70;99.90
2100;DHT22;1055;48.854;9.302;2024-03-02T09:04:27;7.70;99.90
2100;DHT22;1055;48.854;9.302;2024-03-02T09:06:53;7.90;99.90
2100;DHT22;1055;48.854;9.302;2024-03-02T09:09:19;8.00;99.90
2100;DHT22;1055;48.854;9.302;2024-03-02T09:11:46;8.20;99.90
2100;DHT22;1055;48.854;9.302;2024-03-02T09:14:12;8.40;99.90
2100;DHT22;1055;48.854;9.302;2024-03-02T09:16:38;8.50;99.90
2100;DHT22;1055;48.854;9.302;2024-03-02T09:19:03;8.60;99.90
2100;DHT22;1055;48.854;9.302;2024-03-02T09:21:29;8.60;99.90
2100;DHT22;1055;48.854;9.302;2024-03-02T09:23:55;8.80;99.90
2100;DHT22;1055;48.854;9.302;2024-03-02T09:26:22;8.80;99.90
2100;DHT22;1055;48.854;9.302;2024-03-02T09:28:47;9.20;99.90
2100;DHT22;1055;48.854;9.302;2024-03-02T09:31:13;9.30;99.90
2100;DHT22;1055;48.854;9.302;2024-03-02T09:33:39;9.20;99.90
2100;DHT22;1055;48.854;9.302;2024-03-02T09:36:05;9.40;99.90
2100;DHT22;1055;48.854;9.302;2024-03-02T09:38:33;9.70;99.90
2100;DHT22;1055;48.854;9.302;2024-03-02T09:41:00;9.80;99.90
2100;DHT22;1055;48.854;9.302;2024-03-02T09:43:26;9.80;99.90
2100;DHT22;1055;48.854;9.302;2024-03-02T09:45:52;9.70;99.90
2100;DHT22;1055;48.854;9.302;2024-03-02T09:48:18;9.90;99.90
2100;DHT22;1055;48.854;9.302;2024-03-02T09:50:46;10.00;99.90
2100;DHT22;1055;48.854;9.302;2024-03-02T09:53:12;10.10;99.90
2100;DHT22;1055;48.854;9.302;2024-03-02T09:55:39;9.80;99.90
2100;DHT22;1055;48.854;9.302;2024-03-02T09:58:09;10.10;99.90
2100;DHT22;1055;48.854;9.302;2024-03-02T10:00:34;10.20;99.90
2100;DHT22;1055;48.854;9.302;2024-03-02T10:03:00;10.30;99.90
2100;DHT22;1055;48.854;9.302;2024-03-02T10:05:26;10.50;99.90
2100;DHT22;1055;48.854;9.302;2024-03-02T10:08:02;10.50;99.90
2100;DHT22;1055;48.854;9.302;2024-03-02T10:10:36;10.60;99.90
2100;DHT22;1055;48.854;9.302;2024-03-02T10:13:06;10.70;99.90
2100;DHT22;1055;48.854;9.302;2024-03-02T10:15:32;10.90;99.90
2100;DHT22;1055;48.854;9.302;2024-03-02T10:17:57;11.10;99.90
2100;DHT22;1055;48.854;9.302;2024-03-02T10:20:27;11.30;99.90
2100;DHT22;1055;48.854;9.302;2024-03-02T10:23:10;11.30;99.90
2100;DHT22;1055;48.854;9.302;2024-03-02T10:25:36;11.20;99.90
2100;DHT22;1055;48.854;9.302;2024-03-02T10:28:02;11.20;99.90
2100;DHT22;1055;48.854;9.302;2024-03-02T10:30:30;11.40;99.90
2100;DHT22;1055;48.854;9.302;2024-03-02T10:32:56;11.40;99.90
2100;DHT22;1055;48.854;9.302;2024-03-02T10:35:24;11.50;99.90
2100;DHT22;1055;48.854;9.302;2024-03-02T10:37:52;11.60;99.90
2100;DHT22;1055;48.854;9.302;2024-03-02T10:40:21;11.50;99.90
2100;DHT22;1055;48.854;9.302;2024-03-02T10:42:47;11.70;99.90
2100;DHT22;1055;48.854;9.302;2024-03-02T10:45:15;11.80;99.90
2100;DHT22;1055;48.854;9.302;2024-03-02T10:47:42;11.90;99.90
2100;DHT22;1055;48.854;9.302;2024-03-02T10:50:08;12.00;99.90
2100;DHT22;1055;48.854;9.302;2024-03-02T10:52:40;12.10;99.90
2100;DHT22;1055;48.854;9.302;2024-03-02T10:55:11;12.20;99.90
2100;DHT22;1055;48.854;9.302;2024-03-02T10:57:52;12.40;99.90
2100;DHT22;1055;48.854;9.302;2024-03-02T11:00:19;12.40;99.90
2100;DHT22;1055;48.854;9.302;2024-03-02T11:02:52;12.30;99.90
2100;DHT22;1055;48.854;9.302;2024-03-02T11:05:28;12.60;99.90
2100;DHT22;1055;48.854;9.302;2024-03-02T11:08:07;12.60;99.90
2100;DHT22;1055;48.854;9.302;2024-03-02T11:10:35;12.70;99.90
2100;DHT22;1055;48.854;9.302;2024-03-02T11:13:05;13.00;99.90
2100;DHT22;1055;48.854;9.302;2024-03-02T11:15:31;13.00;99.90
2100;DHT22;1055;48.854;9.302;2024-03-02T11:18:00;13.10;99.90
2100;DHT22;1055;48.854;9.302;2024-03-02T11:20:27;13.30;99.90
2100;DHT22;1055;48.854;9.302;2024-03-02T11:22:54;13.00;99.90
2100;DHT22;1055;48.854;9.302;2024-03-02T11:25:26;13.00;99.90
2100;DHT22;1055;48.854;9.302;2024-03-02T11:33:06;13.50;99.90
2100;DHT22;1055;48.854;9.302;2024-03-02T11:35:35;13.40;99.90
2100;DHT22;1055;48.854;9.302;2024-03-02T11:38:01;13.30;99.90
2100;DHT22;1055;48.854;9.302;2024-03-02T11:40:29;13.50;99.90
2100;DHT22;1055;48.854;9.302;2024-03-02T11:42:56;13.40;99.90
2100;DHT22;1055;48.854;9.302;2024-03-02T11:45:23;13.50;99.90
2100;DHT22;1055;48.854;9.302;2024-03-02T11:47:53;13.50;99.90
2100;DHT22;1055;48.854;9.302;2024-03-02T11:50:36;13.70;99.90
2100;DHT22;1055;48.854;9.302;2024-03-02T11:53:09;14.00;99.90
2100;DHT22;1055;48.854;9.302;2024-03-02T11:55:39;14.10;99.90
2100;DHT22;1055;48.854;9.302;2024-03-02T11:58:12;14.00;99.90
2100;DHT22;1055;48.854;9.302;2024-03-02T12:00:38;14.10;99.90
2100;DHT22;1055;48.854;9.302;2024-03-02T12:03:07;14.10;99.90
2100;DHT22;1055;48.854;9.302;2024-03-02T12:05:34;14.30;99.90
2100;DHT22;1055;48.854;9.302;2024-03-02T12:08:05;14.40;99.90
2100;DHT22;1055;48.854;9.302;2024-03-02T12:10:32;14.30;99.90
2100;DHT22;1055;48.854;9.302;2024-03-02T12:13:02;14.30;99.90
2100;DHT22;1055;48.854;9.302;2024-03-02T12:15:29;14.30;99.90
2100;DHT22;1055;48.854;9.302;2024-03-02T12:17:56;14.40;99.90
2100;DHT22;1055;48.854;9.302;2024-03-02T12:20:23;14.90;99.90
2100;DHT22;1055;48.854;9.302;2024-03-02T12:22:53;15.00;99.90
2100;DHT22;1055;48.854;9.302;2024-03-02T12:25:24;15.10;99.90
2100;DHT22;1055;48.854;9.302;2024-03-02T12:27:51;15.40;99.90
2100;DHT22;1055;48.854;9.302;2024-03-02T12:30:18;15.80;99.10
2100;DHT22;1055;48.854;9.302;2024-03-02T12:32:47;15.60;98.70
2100;DHT22;1055;48.854;9.302;2024-03-02T12:35:13;15.50;98.00
2100;DHT22;1055;48.854;9.302;2024-03-02T12:37:49;16.30;99.90
2100;DHT22;1055;48.854;9.302;2024-03-02T12:40:16;16.60;97.90
2100;DHT22;1055;48.854;9.302;2024-03-02T12:42:46;16.70;97.30
2100;DHT22;1055;48.854;9.302;2024-03-02T12:45:12;16.70;96.50
2100;DHT22;1055;48.854;9.302;2024-03-02T12:47:40;17.00;95.90
2100;DHT22;1055;48.854;9.302;2024-03-02T12:50:07;17.00;93.80
2100;DHT22;1055;48.854;9.302;2024-03-02T12:52:33;16.90;94.30
2100;DHT22;1055;48.854;9.302;2024-03-02T12:55:00;17.40;95.50
2100;DHT22;1055;48.854;9.302;2024-03-02T12:57:27;17.20;93.30
2100;DHT22;1055;48.854;9.302;2024-03-02T13:00:03;17.30;92.40
2100;DHT22;1055;48.854;9.302;2024-03-02T13:02:35;16.60;92.30
2100;DHT22;1055;48.854;9.302;2024-03-02T13:05:00;17.20;93.50
2100;DHT22;1055;48.854;9.302;2024-03-02T13:07:26;16.80;90.10
2100;DHT22;1055;48.854;9.302;2024-03-02T13:09:55;17.70;92.20
2100;DHT22;1055;48.854;9.302;2024-03-02T13:12:22;18.30;91.30
2100;DHT22;1055;48.854;9.302;2024-03-02T13:14:51;18.40;88.20
2100;DHT22;1055;48.854;9.302;2024-03-02T13:17:18;18.20;86.80
2100;DHT22;1055;48.854;9.302;2024-03-02T13:19:57;17.70;89.90
2100;DHT22;1055;48.854;9.302;2024-03-02T13:22:24;17.80;88.70
2100;DHT22;1055;48.854;9.302;2024-03-02T13:24:50;18.10;87.00
2100;DHT22;1055;48.854;9.302;2024-03-02T13:27:16;18.80;85.00
2100;DHT22;1055;48.854;9.302;2024-03-02T13:29:42;18.90;82.60
2100;DHT22;1055;48.854;9.302;2024-03-02T13:32:08;18.90;81.70
2100;DHT22;1055;48.854;9.302;2024-03-02T13:34:35;19.70;80.30
2100;DHT22;1055;48.854;9.302;2024-03-02T13:37:01;18.80;77.60
2100;DHT22;1055;48.854;9.302;2024-03-02T13:39:27;19.60;77.80
2100;DHT22;1055;48.854;9.302;2024-03-02T13:41:53;19.00;76.40
2100;DHT22;1055;48.854;9.302;2024-03-02T13:44:22;19.30;77.50
2100;DHT22;1055;48.854;9.302;2024-03-02T13:46:48;19.70;73.50
2100;DHT22;1055;48.854;9.302;2024-03-02T13:49:14;20.20;74.50
2100;DHT22;1055;48.854;9.302;2024-03-02T13:51:40;20.10;71.80
2100;DHT22;1055;48.854;9.302;2024-03-02T13:54:05;20.30;69.70
2100;DHT22;1055;48.854;9.302;2024-03-02T13:56:31;19.90;68.60
2100;DHT22;1055;48.854;9.302;2024-03-02T13:58:58;19.50;71.90
2100;DHT22;1055;48.854;9.302;2024-03-02T14:01:24;19.30;70.30
2100;DHT22;1055;48.854;9.302;2024-03-02T14:03:50;19.30;72.60
2100;DHT22;1055;48.854;9.302;2024-03-02T14:06:16;20.50;70.00
2100;DHT22;1055;48.854;9.302;2024-03-02T14:08:41;21.20;70.40
2100;DHT22;1055;48.854;9.302;2024-03-02T14:11:10;20.20;66.70
2100;DHT22;1055;48.854;9.302;2024-03-02T14:13:40;20.00;69.90
2100;DHT22;1055;48.854;9.302;2024-03-02T14:16:06;19.50;66.20
2100;DHT22;1055;48.854;9.302;2024-03-02T14:18:32;20.30;69.50
2100;DHT22;1055;48.854;9.302;2024-03-02T14:20:57;20.30;66.00
2100;DHT22;1055;48.854;9.302;2024-03-02T14:23:23;20.00;66.20
2100;DHT22;1055;48.854;9.302;2024-03-02T14:25:48;20.40;67.00
2100;DHT22;1055;48.854;9.302;2024-03-02T14:28:14;20.70;64.30
2100;DHT22;1055;48.854;9.302;2024-03-02T14:30:41;20.90;63.50
2100;DHT22;1055;48.854;9.302;2024-03-02T14:33:07;20.80;63.90
2100;DHT22;1055;48.854;9.302;2024-03-02T14:35:33;21.20;63.10
2100;DHT22;1055;48.854;9.302;2024-03-02T14:37:59;20.90;61.40
2100;DHT22;1055;48.854;9.302;2024-03-02T14:40:24;21.30;61.00
2100;DHT22;1055;48.854;9.302;2024-03-02T14:42:52;20.90;61.00
2100;DHT22;1055;48.854;9.302;2024-03-02T14:45:18;20.50;60.90
2100;DHT22;1055;48.854;9.302;2024-03-02T14:47:43;21.20;61.40
2100;DHT22;1055;48.854;9.302;2024-03-02T14:50:09;19.90;58.80
2100;DHT22;1055;48.854;9.302;2024-03-02T14:52:35;20.00;60.70
2100;DHT22;1055;48.854;9.302;2024-03-02T14:55:01;19.50;59.90
2100;DHT22;1055;48.854;9.302;2024-03-02T14:57:28;19.80;61.60
2100;DHT22;1055;48.854;9.302;2024-03-02T14:59:53;20.00;60.00
2100;DHT22;1055;48.854;9.302;2024-03-02T15:02:20;19.70;59.60
2100;DHT22;1055;48.854;9.302;2024-03-02T15:04:45;20.00;60.50
2100;DHT22;1055;48.854;9.302;2024-03-02T15:07:13;19.50;59.40
2100;DHT22;1055;48.854;9.302;2024-03-02T15:09:40;18.00;60.30
2100;DHT22;1055;48.854;9.302;2024-03-02T15:12:07;17.80;62.00
2100;DHT22;1055;48.854;9.302;2024-03-02T15:14:36;18.10;63.70
2100;DHT22;1055;48.854;9.302;2024-03-02T15:17:04;19.10;64.10
2100;DHT22;1055;48.854;9.302;2024-03-02T15:19:30;19.10;64.00
2100;DHT22;1055;48.854;9.302;2024-03-02T15:21:57;18.40;61.70
2100;DHT22;1055;48.854;9.302;2024-03-02T15:24:22;19.00;63.80
2100;DHT22;1055;48.854;9.302;2024-03-02T15:26:48;18.20;66.00
2100;DHT22;1055;48.854;9.302;2024-03-02T15:29:13;18.20;66.80
2100;DHT22;1055;48.854;9.302;2024-03-02T15:31:39;17.60;66.50
2100;DHT22;1055;48.854;9.302;2024-03-02T15:34:05;18.10;69.10
2100;DHT22;1055;48.854;9.302;2024-03-02T15:36:30;17.40;67.00
2100;DHT22;1055;48.854;9.302;2024-03-02T15:38:56;17.20;68.40
2100;DHT22;1055;48.854;9.302;2024-03-02T15:41:22;16.80;69.10
2100;DHT22;1055;48.854;9.302;2024-03-02T15:43:48;17.00;73.20
2100;DHT22;1055;48.854;9.302;2024-03-02T15:46:14;17.00;71.30
2100;DHT22;1055;48.854;9.302;2024-03-02T15:48:39;16.30;72.80
2100;DHT22;1055;48.854;9.302;2024-03-02T15:51:05;16.40;74.50
2100;DHT22;1055;48.854;9.302;2024-03-02T15:53:30;16.50;73.40
2100;DHT22;1055;48.854;9.302;2024-03-02T15:55:56;16.00;73.10
2100;DHT22;1055;48.854;9.302;2024-03-02T15:58:22;15.80;73.90
2100;DHT22;1055;48.854;9.302;2024-03-02T16:00:47;16.00;75.20
2100;DHT22;1055;48.854;9.302;2024-03-02T16:03:13;15.80;75.00
2100;DHT22;1055;48.854;9.302;2024-03-02T16:05:38;16.20;76.00
2100;DHT22;1055;48.854;9.302;2024-03-02T16:08:04;15.50;76.00
2100;DHT22;1055;48.854;9.302;2024-03-02T16:10:30;15.20;78.30
2100;DHT22;1055;48.854;9.302;2024-03-02T16:12:56;15.30;79.20
2100;DHT22;1055;48.854;9.302;2024-03-02T16:15:26;15.40;80.10
2100;DHT22;1055;48.854;9.302;2024-03-02T16:17:52;15.70;80.30
2100;DHT22;1055;48.854;9.302;2024-03-02T16:20:17;15.20;80.00